Timeline UpdatesTrip UpdatesNews PostsPvt PostsTravel TipsAdmin PostsConv PostsFollowed PostsChat RequestsBlog PostsPNR Posts

Disclaimer
Search
 
 
Tue Jul 29, 2014 16:16:47 ISTHomeTrainsΣChainsAtlasPNRForumGalleryNewsFAQTripsMembersLoginFeedback
No Recent News for this Train
Other Trains in the News **new
Latest...
Monsoon TT Updated W.e.f. 1st July to 30th Sept. 2014
Mon Jun 30, 2014 (04:42PM)
⇐ Return Journey: Train# 16335

16336/Nagercoil - Gandhidham Express

Jun 30 (4:41PM)
Change Departure Station:
Change Arrival Station:
Post a Train Travel TipPost a Train Travel Tip **new
Post a Comment/Question/Picture/VideoPost a Comment/Question/Picture/Video
Pantry/Catering
✓ Pantry Car Avbl
✓ Catering Avbl
RSA - Rake Sharing
06309/06310/16335/16336 has RSA.
Rake/Coach Composition
LOCO-SLR-LD-GEN-S1-S2-S3-S4-S5-S6-PC-S7-S8-SS9-S10-S11-S12-A1-B2-B1-GEN-GEN-SLR; Coach position at Ahmedabad.
Loco
NCJ to SRR RPM/ED WAP4 SRR to GIMB ERS WDM3A
News    PNR    Forum    Time-Table    Availability    Fare Chart    Map    Arr/Dep History    Trips    Gallery    ΣChains    X/O    Timeline    
Travel Time: 31h 35m    37 halts    Distance: 1834 km    Avg Speed: 58 km/hr
Type: Mail/Express
Zone: SR/Southern
Departs @ 15:35 (Avg 7m late)
Platform# ???
  T    
Trivandrum Central/TVC 
Arrives @ 23:10 +1 night (Avg 9m late)
Platform# 6
   W   
Vasai Road/BSR 

37 halts. 200 intermediate Stations between Trivandrum Central and Vasai Road

Show ALL intermediate Stations  Show Old Time-Table

#CodeStation NameX/OArrivesAvgDepartsAvgHaltPFDay#KmSpeedElevZoneAddress
1NCJNagercoil Junction (4)  -14:00+511-71.14722mSRNagercoil-629002, Tamil Nadu
2TVC»Trivandrum Central (5)»X  15:30+715:35+75m--10.07812mSRThiruvananthapuram 695001, Kerala
3QLNKollam Junction (6)  16:25+1716:30+175m2164.66416mSRKollam 0474-2746194, Kerala
4KYJKayamkulam Junction (5)X  17:08+2017:10+202m--1105.46111mSRAlappuzha Ph;0479-2442042, Kerala
5CNGRChengannur (3)  17:30+2617:32+292m31125.6686mSRPh: 0479-2452340, Kerala
6TRVLTiruvalla (2)  17:40+3317:42+332m21134.74127mSRPh: 0469-2601314, Kerala
7KTYMKottayam (3)X  18:20+3218:25+395m11160.43815mSRTel: 0481 2563535, Kerala
8ERNErnakulam Town (North) (2)X  20:00+2720:05+265m11220.4569mSRTel: 0484 2395198, Kerala
9AWYAluva (3)  20:23+2920:25+302m--1237.26112mSRPh: 0484-2624141, Kerala
10TCRThrissur (4)X  21:19+3221:22+323m21291.8346mSRThrissur Tel: 0487 2423150, Kerala
11SRRShoranur Junction (7)  22:20+2422:30+4210m--1324.85326mSRShoranur ph.no 0466-2222913, Kerala
12PTBPattambi (2)  22:43+4422:45+432m--1336.36221mSRPattambi, Kerala
13KTUKuttippuram (2)X  23:03+4423:05+442m--1354.85017mSRKuttippuram, Kerala
14TIRTirur (3)  23:23+4323:25+432m--1369.8749mSRTel: 0494 2422240, Kerala
15PGIParappangadi (2)X  23:38+4623:40+462m--1385.97019mSRParappanangadi, Kerala
16FKFerok (2)  23:53+4823:55+472m--1401.12419mSRFeroke, Kerala
17CLTKozhikode Main (4)  00:20+3500:25+365m42411.16311mSRCalicut Tel: 0495 2701234, Kerala
18QLDKoyilandy (3)  00:48+3900:50+382m--2435.47711mSRQuilandi, Kerala
19BDJVadakara (2)  01:07+3801:09+382m22457.37011mSRCalicut / Station Ph No : 0496-2524254, Kerala
20TLYThalassery (2)  01:28+4201:30+422m--2479.4419mSRKannur, Kerala
21CANKannur Main (3)  02:00+3502:05+365m12500.16714mSRKannur Tel: 0497 2705555, Kerala
22KPQKannapuram (2)  02:18+3802:20+382m12514.6649mSRKannur District, Kerala
23PAYPayyanur (3)  02:38+3502:40+352m--2533.8540mSRKannur District, Kerala
24KGQKasaragod (3)  03:38+2203:40+232m--2586.24218mSRTel: 04994 220800, Kerala
25MAJNMangalore Junction (3)X  04:50+305:00+1110m32635.23124mSRMangalore 575001, Karnataka
26SLSurathkal (1)  05:40+1505:42+152m12655.87022mKRSurathkal, Karnataka
27UDUdupi (2)  06:18+1306:20+172m--2697.68018mKRUdupi, Karnataka
28KUDAKundapura (2)X  06:44+2406:46+222m12729.65313mKRBasrur, Karnataka
29BYNRByndoor Mookambika Road (1)X  07:24+007:26+02m12763.24510mKRUdupi Dist. 576214, Karnataka
30MRDWMurdeshwar (2)  08:06+1808:08+362m--2793.16328mKRMurudeshwara, Karnataka
31KTKumta (2)X  08:46+3908:48+492m--2833.14520mKRKumta - 581362, Karnataka
32KAWRKarwar (2)  10:02+4610:04+472m--2888.24514mKRKarwar, Karnataka
33CNOCanacona (1)  10:40+3610:42+382m12915.34329mKRPh:-0832-2643644., Goa
34MAOMadgaon Junction (3)  11:30+3111:40+3110m22949.55011mKRMadgaon 403601, Goa
35SWVSawantwadi Road (2)X  13:10+4613:12+532m121023.96540mKRDist. Sindhudurg, Maharashtra
36RNRatnagiri (3)X  15:40+2015:45+225m221184.459129mKRRatnagiri 415612, Maharashtra
37CHIChiplun (2)X  17:02+4117:04+382m121259.84812mKRChiplun, Maharashtra
38PNVLPanvel Junction (7)  21:20+1421:25+215m721463.5-10mCRPanvel, Maharashtra
39BIRDBhiwandi Road (4)  22:23+2422:25+252m421806.93626mCRBhiwandi, Maharashtra
40BSR•Vasai Road (7)•  23:10+923:15+155m621834.2607mWRThane-401202, Maharashtra
41BORBoisar (3)00:06+2200:08+222m--31885.18417mWRBoisar Tel.no-02525-266626, Maharashtra
42VAPIVapi (3)X  00:58+3301:00+332m--31955.35627mWRVapi, Gujarat
43BLValsad (3)X  01:28+2901:30+372m131981.54115mWRValsad, Gujarat
44STSurat (4)O  03:10+303:22+512m232050.27519mWRSurat 395001, Gujarat
45AKVAnkleshwar Junction (4)X  04:02+1704:04+182m132100.26319mWRAnkleshwar, Gujarat
46BRCVadodara Junction (7)XO  05:20+1805:22+222m232180.06736mWRVadodara 390005, Gujarat
47ANNDAnand Junction (6)X  05:54+3105:56+312m232215.87444mWRAnand, Gujarat
48NDNadiad Junction (4)XO  06:11+3106:13+312m232234.35937mWRNadiad, Gujarat
49MANManinagar (2)  06:56+5506:58+552m132276.71150mWRAhmadabad, Gujarat
50ADIAhmedabad Junction (12)  07:15+2007:35+2120m132279.86351mWRAhmedabad, Gujarat
51VGViramgam Junction (5)  08:37+3108:39+312m132345.25529mWRViramgam, Gujarat
52DHGDhrangadhra Junction (3)  09:50+2509:52+252m--32409.97454mWRDhrangadhra, Gujarat
53MALBMaliya Miyana Junction (2)  10:54+3110:56+312m--32486.8496mWRMalia, Gujarat
54SIOBSamakhiali Junction (3)  11:44+2011:46+212m132526.06042mWRSamakhiali, Gujarat
55BCOBBhachau (3)  12:02+2212:04+222m132541.93044mWRBhachau, Gujarat
56GIMBGandhidham Junction (3)  13:20+2-332579.8-12mWRGandhidham, Gujarat
Scroll to Top
Scroll to Bottom